CYBR

Brandon Municipal Airport

Brandon, Manitoba, Canada
METAR CYBR 250600Z 05007KT 15SM FEW160 FEW250 16/15 A3002 RMK AC1CI1 SLP172 DENSITY ALT 1700FT
Observed Flight Rules
Jun-25 @ 06:00 UTC (23 minutes ago) Visual Flight Rules
Wind Visibility Clouds
50° at 7 knots 15 miles
  • Few at 16,000' AGL
  • Few at 25,000' AGL
Temperatures Readings
Current 16°C / 61°F
Dewpoint 15°C / 59°F
Humidity 94%
Altimeter 30.02" Hg
Pressure 1017.2 hPa
Elevation 409
METAR CYBR 250600Z 05007KT 15SM FEW160 FEW250 16/15 A3002 RMK AC1CI1 SLP172 DENSITY ALT 1700FT
Observed Flight Rules
Jun-25 @ 06:00 UTC
(23 minutes ago)
VFR
Wind Visibility
50° at 7 knots 15 miles
Clouds
  • Few at 16,000' AGL
  • Few at 25,000' AGL
Temperature Dewpoint
16°C / 61°F 15°C / 59°F
Humidity Altimeter Pressure
94% 30.02" Hg 1017.2 hPa